This is the latest recevied weather packets stored in our database for station/object DB0HRH-10. If no packets are shown the sender has not sent any weather packets the latest 10 day(s).
| Time | Temp. | Humidity | Pressure | Rain* | Wind** | Luminosity | Snow |
|---|---|---|---|---|---|---|---|
| 1777042869 | 26.11° C | 21% | 1022.9 hPa | - | - | - | - |
| 1777041969 | 26.11° C | 17% | 1023 hPa | - | - | - | - |
| 1777041068 | 28.89° C | 15% | 1022.9 hPa | - | - | - | - |
| 1777040168 | 23.33° C | 19% | 1023.4 hPa | - | - | - | - |
| 1777039268 | 25° C | 25% | 1023.4 hPa | - | - | - | - |
| 1777038368 | 25° C | 24% | 1023.4 hPa | - | - | - | - |
| 1777037467 | 24.44° C | 25% | 1023.6 hPa | - | - | - | - |
| 1777036567 | 24.44° C | 23% | 1023.7 hPa | - | - | - | - |
| 1777035667 | 22.78° C | 23% | 1023.9 hPa | - | - | - | - |
| 1777034767 | 22.78° C | 24% | 1023.9 hPa | - | - | - | - |
| 1777033867 | 22.78° C | 25% | 1023.9 hPa | - | - | - | - |
| 1777032967 | 23.89° C | 23% | 1024.1 hPa | - | - | - | - |
| 1777032067 | 23.89° C | 22% | 1024.4 hPa | - | - | - | - |
| 1777031167 | 26.11° C | 19% | 1024.3 hPa | - | - | - | - |
| 1777030267 | 24.44° C | 20% | 1024.4 hPa | - | - | - | - |
| 1777029367 | 22.22° C | 23% | 1024.5 hPa | - | - | - | - |
| 1777028467 | 24.44° C | 21% | 1024.7 hPa | - | - | - | - |
| 1777027567 | 26.11° C | 20% | 1024.7 hPa | - | - | - | - |
| 1777026666 | 25° C | 21% | 1024.8 hPa | - | - | - | - |
| 1777025766 | 23.33° C | 22% | 1024.8 hPa | - | - | - | - |
| 1777024866 | 21.67° C | 27% | 1024.8 hPa | - | - | - | - |
| 1777023966 | 20° C | 27% | 1025 hPa | - | - | - | - |
| 1777023066 | 18.89° C | 30% | 1025.1 hPa | - | - | - | - |
| 1777022166 | 20.56° C | 29% | 1025.2 hPa | - | - | - | - |
| 1777021266 | 20.56° C | 29% | 1025.1 hPa | - | - | - | - |
* Rain since midnight (hover to see other rain measurements)
** Current wind speed in m/s (hover to see current wind gust speed)